sensor_id;sensor_type;location;lat;lon;timestamp;temperature;humidity
1361;DHT22;674;45.552;-122.600;2023-04-24T00:00:41;13.40;1.00
1361;DHT22;674;45.552;-122.600;2023-04-24T00:03:09;13.10;1.00
1361;DHT22;674;45.552;-122.600;2023-04-24T00:05:37;13.10;1.00
1361;DHT22;674;45.552;-122.600;2023-04-24T00:08:08;12.80;1.00
1361;DHT22;674;45.552;-122.600;2023-04-24T00:10:36;12.60;1.00
1361;DHT22;674;45.552;-122.600;2023-04-24T00:13:04;12.50;1.00
1361;DHT22;674;45.552;-122.600;2023-04-24T00:15:33;12.60;1.00
1361;DHT22;674;45.552;-122.600;2023-04-24T00:18:01;12.60;1.00
1361;DHT22;674;45.552;-122.600;2023-04-24T00:20:30;12.50;1.00
1361;DHT22;674;45.552;-122.600;2023-04-24T00:23:00;12.50;1.00
1361;DHT22;674;45.552;-122.600;2023-04-24T00:25:28;12.70;1.00
1361;DHT22;674;45.552;-122.600;2023-04-24T00:27:57;12.70;1.00
1361;DHT22;674;45.552;-122.600;2023-04-24T00:30:25;12.70;1.00
1361;DHT22;674;45.552;-122.600;2023-04-24T00:32:54;12.60;1.00
1361;DHT22;674;45.552;-122.600;2023-04-24T00:35:22;12.60;1.00
1361;DHT22;674;45.552;-122.600;2023-04-24T00:37:51;12.50;1.00
1361;DHT22;674;45.552;-122.600;2023-04-24T00:40:19;12.30;1.00
1361;DHT22;674;45.552;-122.600;2023-04-24T00:42:48;12.40;1.00
1361;DHT22;674;45.552;-122.600;2023-04-24T00:45:16;12.40;1.00
1361;DHT22;674;45.552;-122.600;2023-04-24T00:47:45;12.40;1.00
1361;DHT22;674;45.552;-122.600;2023-04-24T00:50:15;12.60;1.00
1361;DHT22;674;45.552;-122.600;2023-04-24T00:52:44;12.40;1.00
1361;DHT22;674;45.552;-122.600;2023-04-24T00:55:12;12.50;1.00
1361;DHT22;674;45.552;-122.600;2023-04-24T00:57:41;12.40;1.00
1361;DHT22;674;45.552;-122.600;2023-04-24T01:00:10;12.30;1.00
1361;DHT22;674;45.552;-122.600;2023-04-24T01:02:40;12.20;1.00
1361;DHT22;674;45.552;-122.600;2023-04-24T01:05:14;12.30;1.00
1361;DHT22;674;45.552;-122.600;2023-04-24T01:07:44;12.40;1.00
1361;DHT22;674;45.552;-122.600;2023-04-24T01:10:16;12.40;1.00
1361;DHT22;674;45.552;-122.600;2023-04-24T01:12:46;12.30;1.00
1361;DHT22;674;45.552;-122.600;2023-04-24T01:15:14;12.20;1.00
1361;DHT22;674;45.552;-122.600;2023-04-24T01:17:43;12.40;1.00
1361;DHT22;674;45.552;-122.600;2023-04-24T01:20:12;12.20;1.00
1361;DHT22;674;45.552;-122.600;2023-04-24T01:22:40;12.10;1.00
1361;DHT22;674;45.552;-122.600;2023-04-24T01:25:10;12.20;1.00
1361;DHT22;674;45.552;-122.600;2023-04-24T01:27:38;12.30;1.00
1361;DHT22;674;45.552;-122.600;2023-04-24T01:30:08;12.40;1.00
1361;DHT22;674;45.552;-122.600;2023-04-24T01:32:36;12.30;1.00
1361;DHT22;674;45.552;-122.600;2023-04-24T01:35:06;12.40;1.00
1361;DHT22;674;45.552;-122.600;2023-04-24T01:37:35;12.40;1.00
1361;DHT22;674;45.552;-122.600;2023-04-24T01:40:08;12.30;1.00
1361;DHT22;674;45.552;-122.600;2023-04-24T01:42:36;12.20;1.00
1361;DHT22;674;45.552;-122.600;2023-04-24T01:45:06;12.30;1.00
1361;DHT22;674;45.552;-122.600;2023-04-24T01:47:34;12.20;1.00
1361;DHT22;674;45.552;-122.600;2023-04-24T01:50:03;12.00;1.00
1361;DHT22;674;45.552;-122.600;2023-04-24T01:52:32;12.00;1.00
1361;DHT22;674;45.552;-122.600;2023-04-24T01:55:01;11.90;1.00
1361;DHT22;674;45.552;-122.600;2023-04-24T01:57:31;11.80;1.00
1361;DHT22;674;45.552;-122.600;2023-04-24T01:59:59;11.90;1.00
1361;DHT22;674;45.552;-122.600;2023-04-24T02:02:28;12.00;1.00
1361;DHT22;674;45.552;-122.600;2023-04-24T02:04:57;11.90;1.00
1361;DHT22;674;45.552;-122.600;2023-04-24T02:07:26;11.80;1.00
1361;DHT22;674;45.552;-122.600;2023-04-24T02:09:54;11.80;1.00
1361;DHT22;674;45.552;-122.600;2023-04-24T02:12:23;11.80;1.00
1361;DHT22;674;45.552;-122.600;2023-04-24T02:14:51;11.90;1.00
1361;DHT22;674;45.552;-122.600;2023-04-24T02:17:19;11.80;1.00
1361;DHT22;674;45.552;-122.600;2023-04-24T02:19:48;11.90;1.00
1361;DHT22;674;45.552;-122.600;2023-04-24T02:22:16;11.70;1.00
1361;DHT22;674;45.552;-122.600;2023-04-24T02:24:44;11.60;1.00
1361;DHT22;674;45.552;-122.600;2023-04-24T02:27:13;11.80;1.00
1361;DHT22;674;45.552;-122.600;2023-04-24T02:29:41;11.90;1.00
1361;DHT22;674;45.552;-122.600;2023-04-24T02:32:10;11.40;1.00
1361;DHT22;674;45.552;-122.600;2023-04-24T02:34:40;11.40;1.00
1361;DHT22;674;45.552;-122.600;2023-04-24T02:37:08;11.50;1.00
1361;DHT22;674;45.552;-122.600;2023-04-24T02:39:36;11.40;1.00
1361;DHT22;674;45.552;-122.600;2023-04-24T02:42:05;11.20;1.00
1361;DHT22;674;45.552;-122.600;2023-04-24T02:44:33;11.20;1.00
1361;DHT22;674;45.552;-122.600;2023-04-24T02:47:01;11.30;1.00
1361;DHT22;674;45.552;-122.600;2023-04-24T02:49:30;11.50;1.00
1361;DHT22;674;45.552;-122.600;2023-04-24T02:51:58;11.40;1.00
1361;DHT22;674;45.552;-122.600;2023-04-24T02:54:26;11.20;1.00
1361;DHT22;674;45.552;-122.600;2023-04-24T02:56:55;11.10;1.00
1361;DHT22;674;45.552;-122.600;2023-04-24T02:59:25;11.10;1.00
1361;DHT22;674;45.552;-122.600;2023-04-24T03:01:54;11.10;1.00
1361;DHT22;674;45.552;-122.600;2023-04-24T03:04:23;11.10;1.00
1361;DHT22;674;45.552;-122.600;2023-04-24T03:06:52;11.20;1.00
1361;DHT22;674;45.552;-122.600;2023-04-24T03:09:22;11.20;1.00
1361;DHT22;674;45.552;-122.600;2023-04-24T03:11:51;11.00;1.00
1361;DHT22;674;45.552;-122.600;2023-04-24T03:14:19;11.20;1.00
1361;DHT22;674;45.552;-122.600;2023-04-24T03:16:48;11.10;1.00
1361;DHT22;674;45.552;-122.600;2023-04-24T03:19:16;11.10;1.00
1361;DHT22;674;45.552;-122.600;2023-04-24T03:21:44;11.20;1.00
1361;DHT22;674;45.552;-122.600;2023-04-24T03:24:12;11.10;1.00
1361;DHT22;674;45.552;-122.600;2023-04-24T03:26:41;11.00;1.00
1361;DHT22;674;45.552;-122.600;2023-04-24T03:29:10;10.90;1.00
1361;DHT22;674;45.552;-122.600;2023-04-24T03:31:38;10.90;1.00
1361;DHT22;674;45.552;-122.600;2023-04-24T03:34:06;10.80;1.00
1361;DHT22;674;45.552;-122.600;2023-04-24T03:36:35;10.80;1.00
1361;DHT22;674;45.552;-122.600;2023-04-24T03:39:03;10.70;1.00
1361;DHT22;674;45.552;-122.600;2023-04-24T03:41:31;10.80;1.00
1361;DHT22;674;45.552;-122.600;2023-04-24T03:44:00;10.70;1.00
1361;DHT22;674;45.552;-122.600;2023-04-24T03:46:28;10.60;1.00
1361;DHT22;674;45.552;-122.600;2023-04-24T03:48:56;10.50;1.00
1361;DHT22;674;45.552;-122.600;2023-04-24T03:51:25;10.50;1.00
1361;DHT22;674;45.552;-122.600;2023-04-24T03:53:55;10.50;1.00
1361;DHT22;674;45.552;-122.600;2023-04-24T03:56:23;10.50;1.00
1361;DHT22;674;45.552;-122.600;2023-04-24T03:58:52;10.50;1.00
1361;DHT22;674;45.552;-122.600;2023-04-24T04:01:20;10.70;1.00
1361;DHT22;674;45.552;-122.600;2023-04-24T04:03:48;10.50;1.00
1361;DHT22;674;45.552;-122.600;2023-04-24T04:06:17;10.50;1.00
1361;DHT22;674;45.552;-122.600;2023-04-24T04:08:47;10.50;1.00
1361;DHT22;674;45.552;-122.600;2023-04-24T04:11:15;10.40;1.00
1361;DHT22;674;45.552;-122.600;2023-04-24T04:13:43;10.50;1.00
1361;DHT22;674;45.552;-122.600;2023-04-24T04:16:12;10.40;1.00
1361;DHT22;674;45.552;-122.600;2023-04-24T04:18:40;10.40;1.00
1361;DHT22;674;45.552;-122.600;2023-04-24T04:21:08;10.40;1.00
1361;DHT22;674;45.552;-122.600;2023-04-24T04:23:37;10.50;1.00
1361;DHT22;674;45.552;-122.600;2023-04-24T04:26:06;10.50;1.00
1361;DHT22;674;45.552;-122.600;2023-04-24T04:28:35;10.50;1.00
1361;DHT22;674;45.552;-122.600;2023-04-24T04:31:06;10.60;1.00
1361;DHT22;674;45.552;-122.600;2023-04-24T04:33:35;10.40;1.00
1361;DHT22;674;45.552;-122.600;2023-04-24T04:36:06;10.40;1.00
1361;DHT22;674;45.552;-122.600;2023-04-24T04:38:34;10.30;1.00
1361;DHT22;674;45.552;-122.600;2023-04-24T04:41:02;10.20;1.00
1361;DHT22;674;45.552;-122.600;2023-04-24T04:43:31;10.20;1.00
1361;DHT22;674;45.552;-122.600;2023-04-24T04:46:00;10.20;1.00
1361;DHT22;674;45.552;-122.600;2023-04-24T04:48:28;10.20;1.00
1361;DHT22;674;45.552;-122.600;2023-04-24T04:50:59;10.20;1.00
1361;DHT22;674;45.552;-122.600;2023-04-24T04:53:27;10.20;1.00
1361;DHT22;674;45.552;-122.600;2023-04-24T04:55:55;10.20;1.00
1361;DHT22;674;45.552;-122.600;2023-04-24T04:58:24;10.20;1.00
1361;DHT22;674;45.552;-122.600;2023-04-24T05:00:52;10.00;1.00
1361;DHT22;674;45.552;-122.600;2023-04-24T05:03:20;10.30;1.00
1361;DHT22;674;45.552;-122.600;2023-04-24T05:05:49;10.10;1.00
1361;DHT22;674;45.552;-122.600;2023-04-24T05:08:17;10.00;1.00
1361;DHT22;674;45.552;-122.600;2023-04-24T05:10:54;9.90;1.00
1361;DHT22;674;45.552;-122.600;2023-04-24T05:13:23;10.00;1.00
1361;DHT22;674;45.552;-122.600;2023-04-24T05:16:05;9.90;1.00
1361;DHT22;674;45.552;-122.600;2023-04-24T05:18:34;9.90;1.00
1361;DHT22;674;45.552;-122.600;2023-04-24T05:21:02;10.00;1.00
1361;DHT22;674;45.552;-122.600;2023-04-24T05:23:31;10.00;1.00
1361;DHT22;674;45.552;-122.600;2023-04-24T05:25:59;9.90;1.00
1361;DHT22;674;45.552;-122.600;2023-04-24T05:28:28;9.90;1.00
1361;DHT22;674;45.552;-122.600;2023-04-24T05:30:56;9.90;1.00
1361;DHT22;674;45.552;-122.600;2023-04-24T05:33:25;10.00;1.00
1361;DHT22;674;45.552;-122.600;2023-04-24T05:35:53;10.10;1.00
1361;DHT22;674;45.552;-122.600;2023-04-24T05:38:21;10.00;1.00
1361;DHT22;674;45.552;-122.600;2023-04-24T05:40:50;10.00;1.00
1361;DHT22;674;45.552;-122.600;2023-04-24T05:43:18;9.90;1.00
1361;DHT22;674;45.552;-122.600;2023-04-24T05:45:46;9.80;1.00
1361;DHT22;674;45.552;-122.600;2023-04-24T05:48:15;9.80;1.00
1361;DHT22;674;45.552;-122.600;2023-04-24T05:50:43;9.90;1.00
1361;DHT22;674;45.552;-122.600;2023-04-24T05:53:12;9.80;1.00
1361;DHT22;674;45.552;-122.600;2023-04-24T05:55:40;9.90;1.00
1361;DHT22;674;45.552;-122.600;2023-04-24T05:58:09;9.90;1.00
1361;DHT22;674;45.552;-122.600;2023-04-24T06:00:37;9.90;1.00
1361;DHT22;674;45.552;-122.600;2023-04-24T06:03:07;9.70;1.00
1361;DHT22;674;45.552;-122.600;2023-04-24T06:05:36;9.80;1.00
1361;DHT22;674;45.552;-122.600;2023-04-24T06:08:04;9.70;1.00
1361;DHT22;674;45.552;-122.600;2023-04-24T06:10:33;9.70;1.00
1361;DHT22;674;45.552;-122.600;2023-04-24T06:13:01;9.80;1.00
1361;DHT22;674;45.552;-122.600;2023-04-24T06:15:30;9.80;1.00
1361;DHT22;674;45.552;-122.600;2023-04-24T06:17:58;9.80;1.00
1361;DHT22;674;45.552;-122.600;2023-04-24T06:20:27;9.70;1.00
1361;DHT22;674;45.552;-122.600;2023-04-24T06:22:55;9.70;1.00
1361;DHT22;674;45.552;-122.600;2023-04-24T06:25:27;9.60;1.00
1361;DHT22;674;45.552;-122.600;2023-04-24T06:27:56;9.60;1.00
1361;DHT22;674;45.552;-122.600;2023-04-24T06:30:24;9.70;1.00
1361;DHT22;674;45.552;-122.600;2023-04-24T06:32:53;9.60;1.00
1361;DHT22;674;45.552;-122.600;2023-04-24T06:35:29;9.40;1.00
1361;DHT22;674;45.552;-122.600;2023-04-24T06:37:57;9.50;6.00
1361;DHT22;674;45.552;-122.600;2023-04-24T06:40:25;9.60;10.40
1361;DHT22;674;45.552;-122.600;2023-04-24T06:42:53;9.50;8.00
1361;DHT22;674;45.552;-122.600;2023-04-24T06:45:22;9.50;16.30
1361;DHT22;674;45.552;-122.600;2023-04-24T06:47:50;9.40;18.00
1361;DHT22;674;45.552;-122.600;2023-04-24T06:50:18;9.40;15.80
1361;DHT22;674;45.552;-122.600;2023-04-24T06:52:47;9.40;27.60
1361;DHT22;674;45.552;-122.600;2023-04-24T06:55:15;9.20;40.30
1361;DHT22;674;45.552;-122.600;2023-04-24T06:57:44;9.30;34.20
1361;DHT22;674;45.552;-122.600;2023-04-24T07:00:13;9.30;27.40
1361;DHT22;674;45.552;-122.600;2023-04-24T07:02:41;9.40;29.10
1361;DHT22;674;45.552;-122.600;2023-04-24T07:05:10;9.30;32.40
1361;DHT22;674;45.552;-122.600;2023-04-24T07:07:38;9.40;36.70
1361;DHT22;674;45.552;-122.600;2023-04-24T07:10:08;9.20;34.40
1361;DHT22;674;45.552;-122.600;2023-04-24T07:12:36;9.30;31.00
1361;DHT22;674;45.552;-122.600;2023-04-24T07:15:06;9.30;36.90
1361;DHT22;674;45.552;-122.600;2023-04-24T07:17:36;9.20;37.90
1361;DHT22;674;45.552;-122.600;2023-04-24T07:20:06;9.20;43.40
1361;DHT22;674;45.552;-122.600;2023-04-24T07:22:38;9.20;48.40
1361;DHT22;674;45.552;-122.600;2023-04-24T07:25:07;9.30;40.40
1361;DHT22;674;45.552;-122.600;2023-04-24T07:27:36;9.30;53.60
1361;DHT22;674;45.552;-122.600;2023-04-24T07:30:05;9.30;52.50
1361;DHT22;674;45.552;-122.600;2023-04-24T07:32:34;9.30;55.10
1361;DHT22;674;45.552;-122.600;2023-04-24T07:35:03;9.20;66.00
1361;DHT22;674;45.552;-122.600;2023-04-24T07:37:31;9.30;71.50
1361;DHT22;674;45.552;-122.600;2023-04-24T07:40:00;9.40;74.60
1361;DHT22;674;45.552;-122.600;2023-04-24T07:42:28;9.30;77.70
1361;DHT22;674;45.552;-122.600;2023-04-24T07:44:58;9.30;88.20
1361;DHT22;674;45.552;-122.600;2023-04-24T07:47:27;9.30;96.00
1361;DHT22;674;45.552;-122.600;2023-04-24T07:49:56;9.00;99.90
1361;DHT22;674;45.552;-122.600;2023-04-24T07:52:24;9.00;99.90
1361;DHT22;674;45.552;-122.600;2023-04-24T07:54:54;9.00;99.90
1361;DHT22;674;45.552;-122.600;2023-04-24T07:57:26;9.00;99.90
1361;DHT22;674;45.552;-122.600;2023-04-24T07:59:54;8.90;99.90
1361;DHT22;674;45.552;-122.600;2023-04-24T08:02:23;8.80;99.90
1361;DHT22;674;45.552;-122.600;2023-04-24T08:04:54;8.90;99.90
1361;DHT22;674;45.552;-122.600;2023-04-24T08:07:26;8.80;99.90
1361;DHT22;674;45.552;-122.600;2023-04-24T08:09:54;8.90;99.90
1361;DHT22;674;45.552;-122.600;2023-04-24T08:12:23;8.80;99.90
1361;DHT22;674;45.552;-122.600;2023-04-24T08:14:51;8.80;99.90
1361;DHT22;674;45.552;-122.600;2023-04-24T08:17:19;8.90;99.90
1361;DHT22;674;45.552;-122.600;2023-04-24T08:19:48;8.80;99.90
1361;DHT22;674;45.552;-122.600;2023-04-24T08:22:17;8.80;99.90
1361;DHT22;674;45.552;-122.600;2023-04-24T08:24:46;8.80;99.90
1361;DHT22;674;45.552;-122.600;2023-04-24T08:27:14;8.80;99.90
1361;DHT22;674;45.552;-122.600;2023-04-24T08:29:42;8.90;99.90
1361;DHT22;674;45.552;-122.600;2023-04-24T08:32:11;8.80;99.90
1361;DHT22;674;45.552;-122.600;2023-04-24T08:34:39;8.70;99.90
1361;DHT22;674;45.552;-122.600;2023-04-24T08:37:08;8.80;99.90
1361;DHT22;674;45.552;-122.600;2023-04-24T08:39:37;8.70;99.90
1361;DHT22;674;45.552;-122.600;2023-04-24T08:42:05;8.70;99.90
1361;DHT22;674;45.552;-122.600;2023-04-24T08:44:36;8.70;99.90
1361;DHT22;674;45.552;-122.600;2023-04-24T08:47:05;8.60;99.90
1361;DHT22;674;45.552;-122.600;2023-04-24T08:49:36;8.60;99.90
1361;DHT22;674;45.552;-122.600;2023-04-24T08:52:06;8.50;99.90
1361;DHT22;674;45.552;-122.600;2023-04-24T08:54:35;8.60;99.90
1361;DHT22;674;45.552;-122.600;2023-04-24T08:57:04;8.60;99.90
1361;DHT22;674;45.552;-122.600;2023-04-24T08:59:32;8.50;99.90
1361;DHT22;674;45.552;-122.600;2023-04-24T09:02:02;8.70;99.90
1361;DHT22;674;45.552;-122.600;2023-04-24T09:04:34;8.70;99.90
1361;DHT22;674;45.552;-122.600;2023-04-24T09:07:03;8.70;99.90
1361;DHT22;674;45.552;-122.600;2023-04-24T09:09:35;8.70;99.90
1361;DHT22;674;45.552;-122.600;2023-04-24T09:12:04;8.60;99.90
1361;DHT22;674;45.552;-122.600;2023-04-24T09:14:33;8.60;99.90
1361;DHT22;674;45.552;-122.600;2023-04-24T09:17:01;8.60;99.90
1361;DHT22;674;45.552;-122.600;2023-04-24T09:19:30;8.50;99.90
1361;DHT22;674;45.552;-122.600;2023-04-24T09:21:58;8.60;99.90
1361;DHT22;674;45.552;-122.600;2023-04-24T09:24:27;8.70;99.90
1361;DHT22;674;45.552;-122.600;2023-04-24T09:26:57;8.70;99.90
1361;DHT22;674;45.552;-122.600;2023-04-24T09:29:37;8.90;99.90
1361;DHT22;674;45.552;-122.600;2023-04-24T09:32:22;8.90;99.90
1361;DHT22;674;45.552;-122.600;2023-04-24T09:35:11;8.90;99.90
1361;DHT22;674;45.552;-122.600;2023-04-24T09:37:45;8.80;99.90
1361;DHT22;674;45.552;-122.600;2023-04-24T09:40:19;8.80;99.90
1361;DHT22;674;45.552;-122.600;2023-04-24T09:42:57;8.80;99.90
1361;DHT22;674;45.552;-122.600;2023-04-24T09:45:35;8.70;99.90
1361;DHT22;674;45.552;-122.600;2023-04-24T09:48:04;8.80;99.90
1361;DHT22;674;45.552;-122.600;2023-04-24T09:50:34;8.80;99.90
1361;DHT22;674;45.552;-122.600;2023-04-24T09:53:03;8.90;99.90
1361;DHT22;674;45.552;-122.600;2023-04-24T09:55:33;9.00;99.90
1361;DHT22;674;45.552;-122.600;2023-04-24T09:58:01;9.00;99.90
1361;DHT22;674;45.552;-122.600;2023-04-24T10:00:33;9.10;99.90
1361;DHT22;674;45.552;-122.600;2023-04-24T10:03:03;9.00;99.90
1361;DHT22;674;45.552;-122.600;2023-04-24T10:05:34;9.00;99.90
1361;DHT22;674;45.552;-122.600;2023-04-24T10:08:06;8.90;99.90
1361;DHT22;674;45.552;-122.600;2023-04-24T10:10:43;8.90;99.90
1361;DHT22;674;45.552;-122.600;2023-04-24T10:13:13;9.00;99.90
1361;DHT22;674;45.552;-122.600;2023-04-24T10:15:43;9.00;99.90
1361;DHT22;674;45.552;-122.600;2023-04-24T10:18:11;9.00;99.90
1361;DHT22;674;45.552;-122.600;2023-04-24T10:20:40;9.00;99.40
1361;DHT22;674;45.552;-122.600;2023-04-24T10:23:09;9.00;99.90
1361;DHT22;674;45.552;-122.600;2023-04-24T10:25:39;9.10;99.90
1361;DHT22;674;45.552;-122.600;2023-04-24T10:28:07;9.20;97.60
1361;DHT22;674;45.552;-122.600;2023-04-24T10:30:37;9.10;91.30
1361;DHT22;674;45.552;-122.600;2023-04-24T10:33:08;8.90;95.10
1361;DHT22;674;45.552;-122.600;2023-04-24T10:35:44;9.00;99.00
1361;DHT22;674;45.552;-122.600;2023-04-24T10:38:15;8.70;98.00
1361;DHT22;674;45.552;-122.600;2023-04-24T10:40:44;8.70;99.90
1361;DHT22;674;45.552;-122.600;2023-04-24T10:43:17;8.70;99.90
1361;DHT22;674;45.552;-122.600;2023-04-24T10:46:02;8.90;99.90
1361;DHT22;674;45.552;-122.600;2023-04-24T10:48:32;8.90;99.90
1361;DHT22;674;45.552;-122.600;2023-04-24T10:51:00;8.80;99.90
1361;DHT22;674;45.552;-122.600;2023-04-24T10:53:30;8.70;99.90
1361;DHT22;674;45.552;-122.600;2023-04-24T10:56:07;8.80;99.90
1361;DHT22;674;45.552;-122.600;2023-04-24T10:58:38;8.80;99.90
1361;DHT22;674;45.552;-122.600;2023-04-24T11:01:08;9.00;99.90
1361;DHT22;674;45.552;-122.600;2023-04-24T11:03:36;8.90;98.60
1361;DHT22;674;45.552;-122.600;2023-04-24T11:06:07;8.90;96.10
1361;DHT22;674;45.552;-122.600;2023-04-24T11:08:43;8.90;96.80
1361;DHT22;674;45.552;-122.600;2023-04-24T11:11:15;8.80;97.00
1361;DHT22;674;45.552;-122.600;2023-04-24T11:14:02;8.80;97.80
1361;DHT22;674;45.552;-122.600;2023-04-24T11:16:34;8.90;95.40
1361;DHT22;674;45.552;-122.600;2023-04-24T11:19:17;8.70;94.30
1361;DHT22;674;45.552;-122.600;2023-04-24T11:24:48;8.80;96.60
1361;DHT22;674;45.552;-122.600;2023-04-24T11:27:19;8.70;97.50
1361;DHT22;674;45.552;-122.600;2023-04-24T11:37:39;8.50;99.90
1361;DHT22;674;45.552;-122.600;2023-04-24T11:40:13;8.50;99.90
1361;DHT22;674;45.552;-122.600;2023-04-24T11:42:47;8.50;99.90
1361;DHT22;674;45.552;-122.600;2023-04-24T11:45:37;8.50;99.90
1361;DHT22;674;45.552;-122.600;2023-04-24T11:48:05;8.60;99.90
1361;DHT22;674;45.552;-122.600;2023-04-24T11:50:33;8.70;99.90
1361;DHT22;674;45.552;-122.600;2023-04-24T11:53:02;8.70;99.90
1361;DHT22;674;45.552;-122.600;2023-04-24T11:55:32;8.60;99.90
1361;DHT22;674;45.552;-122.600;2023-04-24T11:58:00;8.60;99.90
1361;DHT22;674;45.552;-122.600;2023-04-24T12:00:31;9.00;99.90
1361;DHT22;674;45.552;-122.600;2023-04-24T12:03:09;8.70;97.60
1361;DHT22;674;45.552;-122.600;2023-04-24T12:05:39;8.80;97.50
1361;DHT22;674;45.552;-122.600;2023-04-24T12:08:08;8.80;93.90
1361;DHT22;674;45.552;-122.600;2023-04-24T12:10:36;8.80;93.40
1361;DHT22;674;45.552;-122.600;2023-04-24T12:13:05;8.80;93.30
1361;DHT22;674;45.552;-122.600;2023-04-24T12:15:33;8.70;94.40
1361;DHT22;674;45.552;-122.600;2023-04-24T12:18:03;8.80;97.20
1361;DHT22;674;45.552;-122.600;2023-04-24T12:20:32;8.70;95.40
1361;DHT22;674;45.552;-122.600;2023-04-24T12:23:01;8.70;94.90
1361;DHT22;674;45.552;-122.600;2023-04-24T12:25:32;8.80;95.00
1361;DHT22;674;45.552;-122.600;2023-04-24T12:30:43;8.60;95.00
1361;DHT22;674;45.552;-122.600;2023-04-24T12:33:19;8.70;97.30
1361;DHT22;674;45.552;-122.600;2023-04-24T12:35:51;8.90;95.00
1361;DHT22;674;45.552;-122.600;2023-04-24T12:38:25;8.80;93.90
1361;DHT22;674;45.552;-122.600;2023-04-24T12:41:05;8.90;91.00
1361;DHT22;674;45.552;-122.600;2023-04-24T12:43:34;8.80;90.20
1361;DHT22;674;45.552;-122.600;2023-04-24T12:46:03;8.80;91.40
1361;DHT22;674;45.552;-122.600;2023-04-24T12:48:31;8.80;89.50
1361;DHT22;674;45.552;-122.600;2023-04-24T12:51:00;8.80;88.60
1361;DHT22;674;45.552;-122.600;2023-04-24T12:53:29;8.80;87.90
1361;DHT22;674;45.552;-122.600;2023-04-24T12:55:58;8.90;84.30
1361;DHT22;674;45.552;-122.600;2023-04-24T12:58:27;8.70;84.70
1361;DHT22;674;45.552;-122.600;2023-04-24T13:00:55;8.70;83.00
1361;DHT22;674;45.552;-122.600;2023-04-24T13:03:24;8.80;83.50
1361;DHT22;674;45.552;-122.600;2023-04-24T13:05:53;8.90;84.00
1361;DHT22;674;45.552;-122.600;2023-04-24T13:08:22;8.80;78.60
1361;DHT22;674;45.552;-122.600;2023-04-24T13:10:50;8.90;71.90
1361;DHT22;674;45.552;-122.600;2023-04-24T13:13:19;8.90;75.10
1361;DHT22;674;45.552;-122.600;2023-04-24T13:15:48;8.90;76.20
1361;DHT22;674;45.552;-122.600;2023-04-24T13:18:16;8.70;77.10
1361;DHT22;674;45.552;-122.600;2023-04-24T13:20:45;8.70;81.50
1361;DHT22;674;45.552;-122.600;2023-04-24T13:23:15;8.80;80.80
1361;DHT22;674;45.552;-122.600;2023-04-24T13:25:43;8.70;81.80
1361;DHT22;674;45.552;-122.600;2023-04-24T13:28:12;8.90;80.80
1361;DHT22;674;45.552;-122.600;2023-04-24T13:30:43;8.90;70.20
1361;DHT22;674;45.552;-122.600;2023-04-24T13:33:12;8.90;65.90
1361;DHT22;674;45.552;-122.600;2023-04-24T13:35:41;9.00;69.80
1361;DHT22;674;45.552;-122.600;2023-04-24T13:38:09;9.20;64.10
1361;DHT22;674;45.552;-122.600;2023-04-24T13:40:38;9.10;57.20
1361;DHT22;674;45.552;-122.600;2023-04-24T13:43:06;9.00;44.80
1361;DHT22;674;45.552;-122.600;2023-04-24T13:45:35;8.90;53.30
1361;DHT22;674;45.552;-122.600;2023-04-24T13:48:03;8.90;57.70
1361;DHT22;674;45.552;-122.600;2023-04-24T13:50:32;9.00;55.10
1361;DHT22;674;45.552;-122.600;2023-04-24T13:53:01;8.90;48.70
1361;DHT22;674;45.552;-122.600;2023-04-24T13:55:30;9.00;56.20
1361;DHT22;674;45.552;-122.600;2023-04-24T13:57:59;9.10;56.00
1361;DHT22;674;45.552;-122.600;2023-04-24T14:00:28;9.20;50.40
1361;DHT22;674;45.552;-122.600;2023-04-24T14:02:56;9.10;40.90
1361;DHT22;674;45.552;-122.600;2023-04-24T14:05:25;9.30;46.70
1361;DHT22;674;45.552;-122.600;2023-04-24T14:07:53;9.30;29.80
1361;DHT22;674;45.552;-122.600;2023-04-24T14:10:22;9.20;24.90
1361;DHT22;674;45.552;-122.600;2023-04-24T14:12:51;9.10;27.90
1361;DHT22;674;45.552;-122.600;2023-04-24T14:15:20;9.20;29.00
1361;DHT22;674;45.552;-122.600;2023-04-24T14:17:48;9.20;39.40
1361;DHT22;674;45.552;-122.600;2023-04-24T14:20:17;9.40;29.80
1361;DHT22;674;45.552;-122.600;2023-04-24T14:22:46;9.40;21.60
1361;DHT22;674;45.552;-122.600;2023-04-24T14:25:15;9.30;18.00
1361;DHT22;674;45.552;-122.600;2023-04-24T14:27:43;9.40;19.00
1361;DHT22;674;45.552;-122.600;2023-04-24T14:30:12;9.40;20.70
1361;DHT22;674;45.552;-122.600;2023-04-24T14:32:41;9.60;17.90
1361;DHT22;674;45.552;-122.600;2023-04-24T14:35:09;9.70;5.40
1361;DHT22;674;45.552;-122.600;2023-04-24T14:37:38;9.50;9.30
1361;DHT22;674;45.552;-122.600;2023-04-24T14:40:09;9.50;16.00
1361;DHT22;674;45.552;-122.600;2023-04-24T14:42:58;9.60;19.00
1361;DHT22;674;45.552;-122.600;2023-04-24T14:45:26;9.50;9.70
1361;DHT22;674;45.552;-122.600;2023-04-24T14:47:55;9.50;15.90
1361;DHT22;674;45.552;-122.600;2023-04-24T14:50:24;9.60;19.80
1361;DHT22;674;45.552;-122.600;2023-04-24T14:52:56;9.80;22.40
1361;DHT22;674;45.552;-122.600;2023-04-24T14:55:29;9.80;8.60
1361;DHT22;674;45.552;-122.600;2023-04-24T14:57:58;9.80;1.00
1361;DHT22;674;45.552;-122.600;2023-04-24T15:00:27;10.00;1.00
1361;DHT22;674;45.552;-122.600;2023-04-24T15:02:55;10.20;1.00
1361;DHT22;674;45.552;-122.600;2023-04-24T15:05:24;10.30;1.00
1361;DHT22;674;45.552;-122.600;2023-04-24T15:07:53;10.60;1.00
1361;DHT22;674;45.552;-122.600;2023-04-24T15:10:21;10.60;1.00
1361;DHT22;674;45.552;-122.600;2023-04-24T15:12:51;10.50;1.00
1361;DHT22;674;45.552;-122.600;2023-04-24T15:15:20;10.60;1.00
1361;DHT22;674;45.552;-122.600;2023-04-24T15:17:48;11.00;1.00
1361;DHT22;674;45.552;-122.600;2023-04-24T15:20:17;11.40;1.00
1361;DHT22;674;45.552;-122.600;2023-04-24T15:22:46;11.80;1.00
1361;DHT22;674;45.552;-122.600;2023-04-24T15:25:15;12.10;1.00
1361;DHT22;674;45.552;-122.600;2023-04-24T15:27:44;12.70;1.00
1361;DHT22;674;45.552;-122.600;2023-04-24T15:30:14;13.30;1.00
1361;DHT22;674;45.552;-122.600;2023-04-24T15:32:42;14.10;1.00
1361;DHT22;674;45.552;-122.600;2023-04-24T15:35:11;14.40;1.00
1361;DHT22;674;45.552;-122.600;2023-04-24T15:37:39;15.10;1.00
1361;DHT22;674;45.552;-122.600;2023-04-24T15:40:08;15.60;1.00
1361;DHT22;674;45.552;-122.600;2023-04-24T15:42:40;15.20;1.00
1361;DHT22;674;45.552;-122.600;2023-04-24T15:45:10;16.10;1.00
1361;DHT22;674;45.552;-122.600;2023-04-24T15:47:39;16.90;1.00
1361;DHT22;674;45.552;-122.600;2023-04-24T15:50:08;16.40;1.00
1361;DHT22;674;45.552;-122.600;2023-04-24T15:52:40;16.30;1.00
1361;DHT22;674;45.552;-122.600;2023-04-24T15:55:09;15.30;1.00
1361;DHT22;674;45.552;-122.600;2023-04-24T15:57:39;15.20;1.00
1361;DHT22;674;45.552;-122.600;2023-04-24T16:00:08;15.60;1.00
1361;DHT22;674;45.552;-122.600;2023-04-24T16:02:38;15.80;1.00
1361;DHT22;674;45.552;-122.600;2023-04-24T16:05:07;15.90;1.00
1361;DHT22;674;45.552;-122.600;2023-04-24T16:07:37;15.90;1.00
1361;DHT22;674;45.552;-122.600;2023-04-24T16:10:07;16.50;1.00
1361;DHT22;674;45.552;-122.600;2023-04-24T16:12:36;16.90;1.00
1361;DHT22;674;45.552;-122.600;2023-04-24T16:15:04;16.70;1.00